createdAt,value
2022-08-11T00:01:27.561Z,8.98
2022-08-11T00:03:58.282Z,10.55
2022-08-11T00:06:37.164Z,9.40
2022-08-11T00:09:09.335Z,7.97
2022-08-11T00:11:40.914Z,6.90
2022-08-11T00:14:37.130Z,8.88
2022-08-11T00:17:14.418Z,11.90
2022-08-11T00:20:12.273Z,8.10
2022-08-11T00:22:34.876Z,10.25
2022-08-11T00:25:28.565Z,12.98
2022-08-11T00:27:55.450Z,10.75
2022-08-11T00:30:22.584Z,10.00
2022-08-11T00:32:59.093Z,7.95
2022-08-11T00:35:53.702Z,15.23
2022-08-11T00:38:26.118Z,7.22
2022-08-11T00:41:05.150Z,6.10
2022-08-11T00:44:22.948Z,6.22
2022-08-11T00:47:11.546Z,9.95
2022-08-11T00:50:09.296Z,10.02
2022-08-11T00:52:51.289Z,6.40
2022-08-11T00:55:58.800Z,4.50
2022-08-11T00:58:43.902Z,7.03
2022-08-11T01:01:17.891Z,6.97
2022-08-11T01:04:11.604Z,10.63
2022-08-11T01:06:50.355Z,6.70
2022-08-11T01:09:53.158Z,6.70
2022-08-11T01:12:28.603Z,7.63
2022-08-11T01:15:25.990Z,7.47
2022-08-11T01:18:29.953Z,5.28
2022-08-11T01:21:36.925Z,5.97
2022-08-11T01:24:51.505Z,10.07
2022-08-11T01:27:45.181Z,5.80
2022-08-11T01:30:37.503Z,6.97
2022-08-11T01:33:34.930Z,18.40
2022-08-11T01:36:10.876Z,9.70
2022-08-11T01:39:11.203Z,19.25
2022-08-11T01:42:34.081Z,14.40
2022-08-11T01:45:50.250Z,19.65
2022-08-11T01:48:30.154Z,13.07
2022-08-11T01:51:47.116Z,14.90
2022-08-11T01:55:02.531Z,12.23
2022-08-11T01:57:44.827Z,15.73
2022-08-11T02:00:20.261Z,12.05
2022-08-11T02:03:07.013Z,12.52
2022-08-11T02:06:01.628Z,10.02
2022-08-11T02:08:50.364Z,9.65
2022-08-11T02:11:35.861Z,16.77
2022-08-11T02:15:05.168Z,9.93
2022-08-11T02:17:49.421Z,10.60
2022-08-11T02:20:49.497Z,10.30
2022-08-11T02:24:04.319Z,15.30
2022-08-11T02:32:39.532Z,17.30
2022-08-11T02:35:28.928Z,13.73
2022-08-11T02:37:58.556Z,15.60
2022-08-11T02:40:46.059Z,9.68
2022-08-11T02:43:31.957Z,19.35
2022-08-11T02:46:19.364Z,12.68
2022-08-11T02:49:23.137Z,14.88
2022-08-11T02:52:17.904Z,12.25
2022-08-11T02:55:56.191Z,11.13
2022-08-11T02:58:22.024Z,18.02
2022-08-11T03:01:07.041Z,18.40
2022-08-11T03:03:53.124Z,16.08
2022-08-11T03:06:31.629Z,14.40
2022-08-11T03:09:19.583Z,16.13
2022-08-11T03:12:21.056Z,13.82
2022-08-11T03:15:31.256Z,14.25
2022-08-11T03:18:25.529Z,16.65
2022-08-11T03:21:06.949Z,12.55
2022-08-11T03:23:50.247Z,11.57
2022-08-11T03:26:33.724Z,11.18
2022-08-11T03:29:25.193Z,11.00
2022-08-11T03:33:31.162Z,10.50
2022-08-11T03:36:57.606Z,8.80
2022-08-11T03:39:32.476Z,18.63
2022-08-11T03:42:27.401Z,13.30
2022-08-11T03:45:28.818Z,13.43
2022-08-11T03:48:39.638Z,13.68
2022-08-11T03:51:25.542Z,17.63
2022-08-11T03:54:19.607Z,16.75
2022-08-11T03:57:21.528Z,13.52
2022-08-11T04:00:14.895Z,9.95
2022-08-11T04:03:31.210Z,12.23
2022-08-11T04:06:32.251Z,11.27
2022-08-11T04:09:59.036Z,13.25
2022-08-11T04:12:58.704Z,14.98
2022-08-11T04:16:16.540Z,12.13
2022-08-11T04:18:52.596Z,10.20
2022-08-11T04:22:15.650Z,13.18
2022-08-11T04:25:25.221Z,10.20
2022-08-11T04:28:29.746Z,14.10
2022-08-11T04:31:14.710Z,18.65
2022-08-11T04:34:28.876Z,14.30
2022-08-11T04:37:36.406Z,18.83
2022-08-11T04:40:39.621Z,13.98
2022-08-11T04:44:17.663Z,16.30
2022-08-11T04:48:01.898Z,19.48
2022-08-11T04:51:40.578Z,15.95
2022-08-11T04:55:24.587Z,16.98
2022-08-11T04:58:57.304Z,13.18
2022-08-11T05:01:56.127Z,16.02
2022-08-11T05:04:50.597Z,16.42
2022-08-11T05:08:04.137Z,14.93
2022-08-11T05:11:15.339Z,11.82
2022-08-11T05:14:04.179Z,13.70
2022-08-11T05:17:12.834Z,13.20
2022-08-11T05:20:04.177Z,15.90
2022-08-11T05:22:50.812Z,9.07
2022-08-11T05:26:46.877Z,11.75
2022-08-11T05:29:08.271Z,12.43
2022-08-11T05:32:15.769Z,11.35
2022-08-11T05:34:55.440Z,8.73
2022-08-11T05:37:33.326Z,10.93
2022-08-11T05:40:31.933Z,13.75
2022-08-11T05:43:32.267Z,12.00
2022-08-11T05:46:25.834Z,11.02
2022-08-11T05:49:12.137Z,10.07
2022-08-11T05:52:04.929Z,17.42
2022-08-11T05:54:54.314Z,12.60
2022-08-11T05:57:39.532Z,11.77
2022-08-11T06:00:15.452Z,8.02
2022-08-11T06:02:45.116Z,12.65
2022-08-11T06:05:14.104Z,12.43
2022-08-11T06:07:47.181Z,10.57
2022-08-11T06:10:38.516Z,14.38
2022-08-11T06:13:08.083Z,14.32
2022-08-11T06:15:46.003Z,10.13
2022-08-11T06:18:14.467Z,10.10
2022-08-11T06:20:52.583Z,11.60
2022-08-11T06:23:25.766Z,14.15
2022-08-11T06:25:56.126Z,10.63
2022-08-11T06:28:36.691Z,12.13
2022-08-11T06:31:17.772Z,15.15
2022-08-11T06:33:50.755Z,12.88
2022-08-11T06:36:38.804Z,13.63
2022-08-11T06:39:39.305Z,15.10
2022-08-11T06:42:13.716Z,10.40
2022-08-11T06:44:45.041Z,12.03
2022-08-11T06:47:16.252Z,11.10
2022-08-11T06:50:07.157Z,12.27
2022-08-11T06:52:37.088Z,15.43
2022-08-11T06:55:57.639Z,16.75
2022-08-11T06:58:50.762Z,11.98
2022-08-11T07:01:38.623Z,9.27
2022-08-11T07:04:09.637Z,10.35
2022-08-11T07:07:35.910Z,10.15
2022-08-11T07:10:47.292Z,9.73
2022-08-11T07:13:44.383Z,11.75
2022-08-11T07:16:26.437Z,10.48
2022-08-11T07:19:20.385Z,22.27
2022-08-11T07:22:07.527Z,18.90
2022-08-11T07:25:03.535Z,18.67
2022-08-11T07:28:01.841Z,17.30
2022-08-11T07:30:30.460Z,20.27
2022-08-11T07:33:01.471Z,11.48
2022-08-11T07:35:39.920Z,13.65
2022-08-11T07:38:18.169Z,10.00
2022-08-11T07:40:50.029Z,10.10
2022-08-11T07:43:17.398Z,10.43
2022-08-11T07:46:05.390Z,11.90
2022-08-11T07:48:52.565Z,12.65
2022-08-11T07:51:41.415Z,8.00
2022-08-11T07:54:16.797Z,10.02
2022-08-11T07:56:54.850Z,10.98
2022-08-11T07:59:59.911Z,13.82
2022-08-11T08:02:50.875Z,14.55
2022-08-11T08:05:37.588Z,14.15
2022-08-11T08:08:24.521Z,9.20
2022-08-11T08:11:11.313Z,9.50
2022-08-11T08:13:57.382Z,9.48
2022-08-11T08:16:43.624Z,10.55
2022-08-11T08:19:16.628Z,8.20
2022-08-11T08:21:45.859Z,7.82
2022-08-11T08:24:14.312Z,18.83
2022-08-11T08:26:59.220Z,7.80
2022-08-11T08:30:07.998Z,11.30
2022-08-11T08:32:40.057Z,9.85
2022-08-11T08:35:10.842Z,12.00
2022-08-11T08:37:45.614Z,14.32
2022-08-11T08:40:14.902Z,8.63
2022-08-11T08:42:56.721Z,9.95
2022-08-11T08:45:27.472Z,12.32
2022-08-11T08:48:06.342Z,12.13
2022-08-11T08:50:55.657Z,5.07
2022-08-11T08:53:31.155Z,4.63
2022-08-11T08:56:01.564Z,10.32
2022-08-11T08:58:30.817Z,3.95
2022-08-11T09:01:00.690Z,6.38
2022-08-11T09:04:05.240Z,4.70
2022-08-11T09:06:17.361Z,6.25
2022-08-11T09:08:46.056Z,6.93
2022-08-11T09:11:35.355Z,6.00
2022-08-11T09:14:05.601Z,3.90
2022-08-11T09:16:35.160Z,7.00
2022-08-11T09:19:03.274Z,8.60
2022-08-11T09:21:44.573Z,4.82
2022-08-11T09:24:36.642Z,2.33
2022-08-11T09:27:07.820Z,5.03
2022-08-11T09:29:36.122Z,2.60
2022-08-11T09:32:03.505Z,4.18
2022-08-11T09:34:31.240Z,5.05
2022-08-11T09:37:54.877Z,4.00
2022-08-11T09:40:27.265Z,6.90
2022-08-11T09:43:15.789Z,6.55
2022-08-11T09:45:51.690Z,10.60
2022-08-11T09:48:24.664Z,6.07
2022-08-11T09:50:56.068Z,5.60
2022-08-11T09:53:35.811Z,2.97
2022-08-11T09:56:29.001Z,5.10
2022-08-11T09:58:56.109Z,7.85
2022-08-11T10:01:30.417Z,7.82
2022-08-11T10:04:07.832Z,3.97
2022-08-11T10:06:56.597Z,8.25
2022-08-11T10:09:25.792Z,4.63
2022-08-11T10:11:59.646Z,5.40
2022-08-11T10:14:47.016Z,8.30
2022-08-11T10:17:17.201Z,5.70
2022-08-11T10:20:04.124Z,5.53
2022-08-11T10:22:53.160Z,3.78
2022-08-11T10:25:40.562Z,5.25
2022-08-11T10:28:33.015Z,6.30
2022-08-11T10:31:16.898Z,7.55
2022-08-11T10:34:01.757Z,5.03
2022-08-11T10:36:45.267Z,5.53
2022-08-11T10:39:18.031Z,3.03
2022-08-11T10:42:09.592Z,4.00
2022-08-11T10:44:46.368Z,8.43
2022-08-11T10:47:34.561Z,4.03
2022-08-11T10:50:30.679Z,4.07
2022-08-11T10:53:18.827Z,6.97
2022-08-11T10:56:06.137Z,8.27
2022-08-11T10:58:52.326Z,3.83
2022-08-11T11:01:29.242Z,3.05
2022-08-11T11:04:05.941Z,4.07
2022-08-11T11:06:35.265Z,5.55
2022-08-11T11:09:13.714Z,2.30
2022-08-11T11:12:08.485Z,2.70
2022-08-11T11:14:58.990Z,5.28
2022-08-11T11:18:09.575Z,3.40
2022-08-11T11:20:50.952Z,6.35
2022-08-11T11:23:47.500Z,4.80
2022-08-11T11:26:32.350Z,2.70
2022-08-11T11:29:30.123Z,5.22
2022-08-11T11:32:19.131Z,2.53
2022-08-11T11:35:26.855Z,5.35
2022-08-11T11:38:03.439Z,3.25
2022-08-11T11:40:33.282Z,8.82
2022-08-11T11:43:01.575Z,4.22
2022-08-11T11:45:29.019Z,4.10
2022-08-11T11:47:59.737Z,6.25
2022-08-11T11:50:32.911Z,7.03
2022-08-11T11:53:04.545Z,3.55
2022-08-11T11:55:32.133Z,3.45
2022-08-11T11:58:23.244Z,2.08
2022-08-11T12:01:11.601Z,3.25
2022-08-11T12:03:40.865Z,3.92
2022-08-11T12:06:09.798Z,7.55
2022-08-11T12:08:38.043Z,5.28
2022-08-11T12:11:28.685Z,3.90
2022-08-11T12:13:59.786Z,3.67
2022-08-11T12:16:35.698Z,6.95
2022-08-11T12:19:13.665Z,2.35
2022-08-11T12:22:01.249Z,7.97
2022-08-11T12:24:49.284Z,9.60
2022-08-11T12:27:25.306Z,3.28
2022-08-11T12:30:08.709Z,2.45
2022-08-11T12:32:39.246Z,4.05
2022-08-11T12:35:08.157Z,6.10
2022-08-11T12:37:45.704Z,3.90
2022-08-11T12:41:03.599Z,3.30
2022-08-11T12:43:56.894Z,4.13
2022-08-11T12:46:33.495Z,5.47
2022-08-11T12:49:45.503Z,5.38
2022-08-11T12:52:25.926Z,5.05
2022-08-11T12:55:34.346Z,3.35
2022-08-11T12:58:17.382Z,7.45
2022-08-11T13:01:04.530Z,2.10
2022-08-11T13:03:56.720Z,8.05
2022-08-11T13:06:25.641Z,2.90
2022-08-11T13:08:55.753Z,5.32
2022-08-11T13:11:55.584Z,5.00
2022-08-11T13:14:26.337Z,4.75
2022-08-11T13:17:12.457Z,5.15
2022-08-11T13:19:47.489Z,3.42
2022-08-11T13:22:19.328Z,4.47
2022-08-11T13:24:46.786Z,6.65
2022-08-11T13:27:18.052Z,6.53
2022-08-11T13:29:47.003Z,3.33
2022-08-11T13:32:16.488Z,8.38
2022-08-11T13:34:44.508Z,3.63
2022-08-11T13:37:14.509Z,6.00
2022-08-11T13:39:48.566Z,5.43
2022-08-11T13:42:20.327Z,5.17
2022-08-11T13:44:48.459Z,3.15
2022-08-11T13:47:16.587Z,3.88
2022-08-11T13:49:45.189Z,2.80
2022-08-11T13:52:17.178Z,2.95
2022-08-11T13:54:48.499Z,4.03
2022-08-11T13:58:09.115Z,6.15
2022-08-11T14:00:24.936Z,2.83
2022-08-11T14:02:57.425Z,3.60
2022-08-11T14:05:40.655Z,4.38
2022-08-11T14:08:37.836Z,5.00
2022-08-11T14:12:21.297Z,2.58
2022-08-11T14:14:23.305Z,2.33
2022-08-11T14:16:52.501Z,5.45
2022-08-11T14:19:23.558Z,7.60
2022-08-11T14:22:08.305Z,1.88
2022-08-11T14:24:44.510Z,5.32
2022-08-11T14:28:30.354Z,2.13
2022-08-11T14:30:01.606Z,4.25
2022-08-11T14:32:28.657Z,3.17
2022-08-11T14:34:55.970Z,3.25
2022-08-11T14:37:25.783Z,4.68
2022-08-11T14:40:21.529Z,2.60
2022-08-11T14:45:57.430Z,5.97
2022-08-11T14:48:26.996Z,3.33
2022-08-11T14:50:54.300Z,2.45
2022-08-11T14:53:23.194Z,4.22
2022-08-11T14:56:10.180Z,1.98
2022-08-11T14:58:39.769Z,4.88
2022-08-11T15:01:26.696Z,4.88
2022-08-11T15:04:34.124Z,5.43
2022-08-11T15:06:43.179Z,1.80
2022-08-11T15:09:10.278Z,3.15
2022-08-11T15:11:55.888Z,2.53
2022-08-11T15:14:42.269Z,4.43
2022-08-11T15:17:10.729Z,5.18
2022-08-11T15:20:00.968Z,3.10
2022-08-11T15:22:46.809Z,5.00
2022-08-11T15:25:14.036Z,5.93
2022-08-11T15:28:01.768Z,4.78
2022-08-11T15:30:49.073Z,3.40
2022-08-11T15:33:37.372Z,5.57
2022-08-11T15:36:27.104Z,3.42
2022-08-11T15:39:21.003Z,2.22
2022-08-11T15:42:32.379Z,3.75
2022-08-11T15:45:22.346Z,4.30
2022-08-11T15:48:00.667Z,7.07
2022-08-11T15:50:40.460Z,2.70
2022-08-11T15:53:20.056Z,4.60
2022-08-11T15:55:49.052Z,3.65
2022-08-11T15:58:37.914Z,3.17
2022-08-11T16:01:24.740Z,4.43
2022-08-11T16:04:14.185Z,6.38
2022-08-11T16:06:51.898Z,4.75
2022-08-11T16:09:39.727Z,1.70
2022-08-11T16:12:28.478Z,4.95
2022-08-11T16:15:20.733Z,2.33
2022-08-11T16:17:53.188Z,2.95
2022-08-11T16:20:27.104Z,3.55
2022-08-11T16:23:02.571Z,4.47
2022-08-11T16:27:01.315Z,5.57
2022-08-11T16:28:25.593Z,4.10
2022-08-11T16:30:54.260Z,5.18
2022-08-11T16:33:49.441Z,4.05
2022-08-11T16:36:32.092Z,5.45
2022-08-11T16:39:02.138Z,5.30
2022-08-11T16:41:52.500Z,4.38
2022-08-11T16:44:39.510Z,4.85
2022-08-11T16:47:11.233Z,4.78
2022-08-11T16:49:47.167Z,3.05
2022-08-11T16:52:22.107Z,4.78
2022-08-11T16:54:49.703Z,4.57
2022-08-11T16:57:43.929Z,4.80
2022-08-11T17:00:15.124Z,4.60
2022-08-11T17:03:12.153Z,3.15
2022-08-11T17:06:04.945Z,2.78
2022-08-11T17:09:26.305Z,5.45
2022-08-11T17:12:15.551Z,6.57
2022-08-11T17:14:50.285Z,2.17
2022-08-11T17:17:26.682Z,3.13
2022-08-11T17:20:41.983Z,7.22
2022-08-11T17:23:13.396Z,5.43
2022-08-11T17:26:03.525Z,3.15
2022-08-11T17:28:29.968Z,2.00
2022-08-11T17:31:18.512Z,4.38
2022-08-11T17:34:09.869Z,2.08
2022-08-11T17:36:41.568Z,4.53
2022-08-11T17:39:13.656Z,2.50
2022-08-11T17:42:00.187Z,5.85
2022-08-11T17:44:47.832Z,2.75
2022-08-11T17:47:35.146Z,8.35
2022-08-11T17:50:09.440Z,2.40
2022-08-11T17:53:05.636Z,6.93
2022-08-11T17:55:54.583Z,6.72
2022-08-11T17:58:42.014Z,3.72
2022-08-11T18:01:12.173Z,3.95
2022-08-11T18:03:42.033Z,4.07
2022-08-11T18:06:21.457Z,3.80
2022-08-11T18:09:33.677Z,2.92
2022-08-11T18:12:21.950Z,4.32
2022-08-11T18:15:13.145Z,3.78
2022-08-11T18:18:00.150Z,4.47
2022-08-11T18:20:46.677Z,4.90
2022-08-11T18:23:41.911Z,4.93
2022-08-11T18:26:38.770Z,6.53
2022-08-11T18:29:26.916Z,2.17
2022-08-11T18:32:20.798Z,6.07
2022-08-11T18:35:11.178Z,6.63
2022-08-11T18:38:02.755Z,4.07
2022-08-11T18:40:49.521Z,2.72
2022-08-11T18:43:40.348Z,3.10
2022-08-11T18:46:29.088Z,5.88
2022-08-11T18:50:02.353Z,6.95
2022-08-11T18:52:36.781Z,5.57
2022-08-11T18:55:26.976Z,2.90
2022-08-11T18:58:14.990Z,4.25
2022-08-11T19:01:04.481Z,5.70
2022-08-11T19:03:50.893Z,5.93
2022-08-11T19:06:42.443Z,4.20
2022-08-11T19:09:34.199Z,3.33
2022-08-11T19:12:23.345Z,5.57
2022-08-11T19:15:10.754Z,1.95
2022-08-11T19:18:01.641Z,3.00
2022-08-11T19:20:50.662Z,3.70
2022-08-11T19:23:46.766Z,6.22
2022-08-11T19:26:34.151Z,3.70
2022-08-11T19:30:04.833Z,6.50
2022-08-11T19:32:30.012Z,4.82
2022-08-11T19:35:18.079Z,4.55
2022-08-11T19:38:04.374Z,4.13
2022-08-11T19:40:51.617Z,4.63
2022-08-11T19:43:38.093Z,2.83
2022-08-11T19:46:24.881Z,2.88
2022-08-11T19:49:14.767Z,7.03
2022-08-11T19:52:02.805Z,4.75
2022-08-11T19:54:53.778Z,4.68
2022-08-11T19:57:43.208Z,6.20
2022-08-11T20:00:40.694Z,6.57
2022-08-11T20:03:30.091Z,7.63
2022-08-11T20:06:21.434Z,4.28
2022-08-11T20:09:09.151Z,5.65
2022-08-11T20:11:58.742Z,10.20
2022-08-11T20:14:50.281Z,6.25
2022-08-11T20:17:37.882Z,6.25
2022-08-11T20:20:26.548Z,8.05
2022-08-11T20:23:14.815Z,8.95
2022-08-11T20:26:14.128Z,4.03
2022-08-11T20:29:09.338Z,4.88
2022-08-11T20:31:56.458Z,6.35
2022-08-11T20:34:42.779Z,3.58
2022-08-11T20:37:30.577Z,4.47
2022-08-11T20:40:22.527Z,4.97
2022-08-11T20:43:09.671Z,9.50
2022-08-11T20:46:15.932Z,4.05
2022-08-11T20:49:04.090Z,5.78
2022-08-11T20:51:50.246Z,5.18
2022-08-11T20:54:43.874Z,7.95
2022-08-11T20:58:00.097Z,6.78
2022-08-11T21:00:44.141Z,7.18
2022-08-11T21:03:35.687Z,5.45
2022-08-11T21:06:31.619Z,4.97
2022-08-11T21:09:58.434Z,5.60
2022-08-11T21:12:30.230Z,7.25
2022-08-11T21:15:38.815Z,6.25
2022-08-11T21:18:28.452Z,5.25
2022-08-11T21:21:18.313Z,15.90
2022-08-11T21:24:07.676Z,6.00
2022-08-11T21:27:01.551Z,4.30
2022-08-11T21:29:51.825Z,5.43
2022-08-11T21:32:38.747Z,6.55
2022-08-11T21:35:26.720Z,6.25
2022-08-11T21:38:12.630Z,7.70
2022-08-11T21:41:00.889Z,7.18
2022-08-11T21:43:50.543Z,10.48
2022-08-11T21:46:39.917Z,8.00
2022-08-11T21:49:27.869Z,4.75
2022-08-11T21:52:13.556Z,7.20
2022-08-11T21:55:00.620Z,3.80
2022-08-11T21:57:48.159Z,10.77
2022-08-11T22:00:36.489Z,10.43
2022-08-11T22:03:23.686Z,13.82
2022-08-11T22:06:12.482Z,15.65
2022-08-11T22:08:58.370Z,14.93
2022-08-11T22:11:44.442Z,16.48
2022-08-11T22:14:29.770Z,10.18
2022-08-11T22:17:15.237Z,7.78
2022-08-11T22:20:01.341Z,13.82
2022-08-11T22:22:53.181Z,10.45
2022-08-11T22:25:54.255Z,13.18
2022-08-11T22:28:40.799Z,6.22
2022-08-11T22:37:00.753Z,14.10
2022-08-11T22:40:01.945Z,8.98
2022-08-11T22:42:51.096Z,19.33
2022-08-11T22:45:37.814Z,11.90
2022-08-11T22:48:25.342Z,9.52
2022-08-11T22:51:12.974Z,12.10
2022-08-11T22:53:59.885Z,8.27
2022-08-11T22:56:50.693Z,9.98
2022-08-11T22:59:38.486Z,6.22
2022-08-11T23:02:25.601Z,7.57
2022-08-11T23:05:12.310Z,7.93
2022-08-11T23:07:58.314Z,4.95
2022-08-11T23:10:45.788Z,9.25
2022-08-11T23:13:32.169Z,11.45
2022-08-11T23:16:18.635Z,10.70
2022-08-11T23:19:04.929Z,8.25
2022-08-11T23:21:50.993Z,8.68
2022-08-11T23:24:38.829Z,7.68
2022-08-11T23:27:27.256Z,6.97
2022-08-11T23:30:18.683Z,6.07
2022-08-11T23:33:17.460Z,6.75
2022-08-11T23:36:08.417Z,9.68
2022-08-11T23:38:55.268Z,8.50
2022-08-11T23:41:41.094Z,10.77
2022-08-11T23:44:27.713Z,6.20
2022-08-11T23:47:18.520Z,7.75
2022-08-11T23:50:06.181Z,5.28
2022-08-11T23:52:53.968Z,6.90
2022-08-11T23:55:40.292Z,9.70
2022-08-11T23:58:26.797Z,7.88
